Time;durP1;ratioP1;P1;durP2;ratioP2;P2;SDS_P1;SDS_P2;PMS_P1;PMS_P2;Temp;Humidity;BMP_temperature;BMP_pressure;BME280_temperature;BME280_humidity;BME280_pressure;Samples;Min_cycle;Max_cycle;Signal;HPM_P1;HPM_P2
2023/07/03 00:02:12;194050.00;0.65;335.68;23076.00;0.08;40.60;;;;;20.00;1.00;;;;;;2271972;61;1131;-87
2023/07/03 00:04:45;156500.00;0.52;271.01;0.00;0.00;0.62;;;;;19.80;1.00;;;;;;2271975;61;1012;-88
2023/07/03 00:07:14;283159.00;0.94;488.97;28083.00;0.09;49.26;;;;;19.90;1.00;;;;;;2271892;61;1293;-87
2023/07/03 00:09:41;270653.00;0.90;467.47;0.00;0.00;0.62;;;;;19.80;1.00;;;;;;2271973;61;888;-87
2023/07/03 00:12:10;107108.00;0.36;185.84;0.00;0.00;0.62;;;;;19.80;1.00;;;;;;2271896;61;1741;-86
2023/07/03 00:14:37;395944.00;1.32;682.83;7610.00;0.03;13.81;;;;;20.00;1.00;;;;;;2271752;61;1062;-86
2023/07/03 00:17:07;138343.00;0.46;239.71;0.00;0.00;0.62;;;;;20.00;1.00;;;;;;2271794;61;2023;-86
2023/07/03 00:19:34;374740.00;1.25;646.38;37985.00;0.13;66.40;;;;;20.10;1.00;;;;;;2271901;61;1641;-87
2023/07/03 00:22:01;213847.00;0.71;369.76;0.00;0.00;0.62;;;;;20.00;1.00;;;;;;2271719;61;1110;-87
2023/07/03 00:24:30;135702.00;0.45;235.16;0.00;0.00;0.62;;;;;20.00;1.00;;;;;;2271903;61;1706;-87
2023/07/03 00:26:57;85813.00;0.29;149.08;0.00;0.00;0.62;;;;;20.10;1.00;;;;;;2271878;61;1410;-88
2023/07/03 00:29:24;42008.00;0.14;73.36;0.00;0.00;0.62;;;;;20.10;1.00;;;;;;2271930;61;1495;-84
2023/07/03 00:31:51;216495.00;0.72;374.31;41443.00;0.14;72.38;;;;;20.00;1.00;;;;;;2271862;61;1727;-88
2023/07/03 00:34:20;346629.00;1.16;598.07;50273.00;0.17;87.66;;;;;20.00;1.00;;;;;;2271922;61;1099;-85
2023/07/03 00:36:47;588556.00;1.96;1014.46;94214.00;0.31;163.58;;;;;19.90;1.00;;;;;;2271835;61;1914;-87
2023/07/03 00:39:14;192566.00;0.64;333.13;0.00;0.00;0.62;;;;;19.70;1.00;;;;;;2271805;61;1013;-88
2023/07/03 00:41:41;267126.00;0.89;461.40;0.00;0.00;0.62;;;;;19.50;1.00;;;;;;2271908;61;1047;-89
2023/07/03 00:44:11;196579.00;0.66;340.03;0.00;0.00;0.62;;;;;19.70;1.00;;;;;;2271849;61;1137;-87
2023/07/03 00:46:39;233969.00;0.78;404.38;0.00;0.00;0.62;;;;;19.80;1.00;;;;;;2271860;61;1007;-88
2023/07/03 00:49:07;452939.00;1.51;780.84;41612.00;0.14;72.68;;;;;19.60;1.00;;;;;;2271753;61;1731;-88
2023/07/03 00:51:35;220719.00;0.74;381.58;0.00;0.00;0.62;;;;;19.60;1.00;;;;;;2271824;61;999;-88
2023/07/03 00:54:02;418988.00;1.40;722.45;0.00;0.00;0.62;;;;;19.50;1.00;;;;;;2271627;61;1013;-88
2023/07/03 00:56:29;85780.00;0.29;149.02;0.00;0.00;0.62;;;;;19.30;1.00;;;;;;2271791;61;1911;-87
2023/07/03 00:58:57;612945.00;2.04;1056.58;0.00;0.00;0.62;;;;;19.40;1.00;;;;;;2271741;61;1408;-87
2023/07/03 01:01:34;183683.00;0.61;317.83;14496.00;0.05;25.74;;;;;19.40;1.00;;;;;;2271817;61;995;-88
2023/07/03 01:04:07;207205.00;0.69;358.32;0.00;0.00;0.62;;;;;19.30;1.00;;;;;;2271884;61;1133;-87
2023/07/03 01:06:41;137418.00;0.46;238.12;0.00;0.00;0.62;;;;;19.40;1.00;;;;;;2271681;61;2542;-87
2023/07/03 01:09:11;244867.00;0.82;423.12;0.00;0.00;0.62;;;;;19.40;1.00;;;;;;2271710;61;1758;-87
2023/07/03 01:11:39;207605.00;0.69;359.01;0.00;0.00;0.62;;;;;19.40;1.00;;;;;;2271807;61;1067;-88
2023/07/03 01:14:08;450612.00;1.50;776.84;46701.00;0.16;81.48;;;;;19.30;1.00;;;;;;2271817;61;1119;-86
2023/07/03 01:16:36;255715.00;0.85;441.78;0.00;0.00;0.62;;;;;19.20;1.00;;;;;;2271686;61;1998;-86
2023/07/03 01:19:11;320388.00;1.07;552.97;0.00;0.00;0.62;;;;;19.10;1.00;;;;;;2271677;61;1779;-87
2023/07/03 01:21:46;168341.00;0.56;291.41;0.00;0.00;0.62;;;;;19.20;1.00;;;;;;2271695;61;1589;-85
2023/07/03 01:24:21;236944.00;0.79;409.49;0.00;0.00;0.62;;;;;19.20;1.00;;;;;;2271745;61;1636;-86
2023/07/03 01:26:50;287721.00;0.96;496.81;0.00;0.00;0.62;;;;;18.90;1.00;;;;;;2272159;61;1458;-86
2023/07/03 01:29:18;118637056.00;395.46;67639736.00;0.00;0.00;0.62;;;;;18.90;1.00;;;;;;2272471;61;1075;-87
2023/07/03 01:31:46;345086.00;1.15;595.42;0.00;0.00;0.62;;;;;18.70;1.00;;;;;;2272497;61;918;-86
2023/07/03 01:34:15;151010.00;0.50;261.55;0.00;0.00;0.62;;;;;18.80;1.00;;;;;;2272440;61;1751;-87
2023/07/03 01:36:43;362629.00;1.21;625.57;0.00;0.00;0.62;;;;;18.90;1.00;;;;;;2272303;61;1990;-86
2023/07/03 01:39:10;329608.00;1.10;568.81;37846.00;0.13;66.16;;;;;18.70;1.00;;;;;;2272345;61;1691;-86
2023/07/03 01:41:39;247905.00;0.83;428.35;9308.00;0.03;16.75;;;;;18.70;1.00;;;;;;2272355;61;2304;-85
2023/07/03 01:44:06;151137.00;0.50;261.77;0.00;0.00;0.62;;;;;18.90;1.00;;;;;;2272417;61;1562;-86
2023/07/03 01:46:33;155882.00;0.52;269.94;0.00;0.00;0.62;;;;;18.80;1.00;;;;;;2272397;61;1003;-85
2023/07/03 01:49:00;488269.00;1.63;841.63;21303.00;0.07;37.53;;;;;19.00;1.00;;;;;;2272357;61;1243;-87
2023/07/03 01:51:39;197715.00;0.66;341.99;0.00;0.00;0.62;;;;;19.20;1.00;;;;;;2272351;61;1705;-86
2023/07/03 01:54:13;110932.00;0.37;192.44;0.00;0.00;0.62;;;;;19.20;1.00;;;;;;2272295;61;1019;-88
2023/07/03 01:56:45;122985.00;0.41;213.23;0.00;0.00;0.62;;;;;19.10;1.00;;;;;;2272315;61;1973;-87
2023/07/03 01:59:14;164391.00;0.55;284.60;0.00;0.00;0.62;;;;;18.70;1.00;;;;;;2272358;61;1107;-87
2023/07/03 02:01:50;110958.00;0.37;192.48;0.00;0.00;0.62;;;;;18.60;1.00;;;;;;2272280;61;1092;-88
2023/07/03 02:04:24;463937.00;1.55;799.76;42298.00;0.14;73.86;;;;;18.80;1.00;;;;;;2272286;61;1759;-86
2023/07/03 02:06:53;480195.00;1.60;827.73;60118.00;0.20;104.68;;;;;18.80;1.00;;;;;;2272249;61;1378;-86
2023/07/03 02:09:21;432396.00;1.44;745.51;49338.00;0.16;86.04;;;;;19.10;1.00;;;;;;2272343;61;1051;-85
2023/07/03 02:11:51;181742.00;0.61;314.49;0.00;0.00;0.62;;;;;19.10;1.00;;;;;;2272297;61;993;-87
2023/07/03 02:14:18;75111.00;0.25;130.59;0.00;0.00;0.62;;;;;19.00;1.00;;;;;;2272227;61;1721;-87
2023/07/03 02:16:47;124100.00;0.41;215.15;0.00;0.00;0.62;;;;;18.90;1.00;;;;;;2272106;61;1919;-87
2023/07/03 02:19:15;86681.00;0.29;150.58;0.00;0.00;0.62;;;;;18.90;1.00;;;;;;2272297;61;1127;-87
2023/07/03 02:21:44;193608.00;0.65;334.92;0.00;0.00;0.62;;;;;18.80;1.00;;;;;;2272135;61;1052;-86
2023/07/03 02:24:12;385128.00;1.28;664.24;0.00;0.00;0.62;;;;;18.70;1.00;;;;;;2272035;61;1627;-89
2023/07/03 02:26:39;173874.00;0.58;300.94;0.00;0.00;0.62;;;;;19.00;1.00;;;;;;2272290;61;1307;-87
2023/07/03 02:29:07;228294.00;0.76;394.61;0.00;0.00;0.62;;;;;19.00;1.00;;;;;;2272200;61;1252;-86
2023/07/03 02:31:34;166455.00;0.55;288.16;0.00;0.00;0.62;;;;;19.10;1.00;;;;;;2272057;61;1735;-87
2023/07/03 02:34:01;157774.00;0.53;273.20;0.00;0.00;0.62;;;;;19.30;1.00;;;;;;2272141;61;1124;-90
2023/07/03 02:36:30;180025.00;0.60;311.53;0.00;0.00;0.62;;;;;19.20;1.00;;;;;;2272016;61;1906;-87
2023/07/03 02:38:57;387887.00;1.29;668.98;0.00;0.00;0.62;;;;;19.30;1.00;;;;;;2272157;61;1566;-86
2023/07/03 02:41:24;425992.00;1.42;734.49;24834.00;0.08;43.64;;;;;19.00;1.00;;;;;;2272125;61;1734;-89
2023/07/03 02:43:51;353601.00;1.18;610.05;0.00;0.00;0.62;;;;;18.60;1.00;;;;;;2271961;61;1145;-88
2023/07/03 02:46:20;172124.00;0.57;297.93;0.00;0.00;0.62;;;;;18.50;1.00;;;;;;2272128;61;987;-86
2023/07/03 02:48:47;272385.00;0.91;470.44;0.00;0.00;0.62;;;;;18.20;1.00;;;;;;2271982;61;1401;-87
2023/07/03 02:51:14;94005.00;0.31;163.22;0.00;0.00;0.62;;;;;18.10;1.00;;;;;;2272140;61;985;-86
2023/07/03 02:53:41;219613.00;0.73;379.68;0.00;0.00;0.62;;;;;18.00;1.00;;;;;;2272064;61;1122;-87
2023/07/03 02:56:08;333620.00;1.11;575.71;0.00;0.00;0.62;;;;;17.80;1.00;;;;;;2272096;61;1988;-86
2023/07/03 02:58:36;298178.00;0.99;514.79;0.00;0.00;0.62;;;;;17.90;1.00;;;;;;2272114;61;1375;-86
2023/07/03 03:01:03;348755.00;1.16;601.72;53802.00;0.18;93.76;;;;;18.10;1.00;;;;;;2272063;61;1745;-86
2023/07/03 03:03:32;706199.00;2.35;1217.99;51930.00;0.17;90.52;;;;;18.20;1.00;;;;;;2272066;61;1769;-86
2023/07/03 03:05:58;683177.00;2.28;1178.08;0.00;0.00;0.62;;;;;18.30;1.00;;;;;;2272057;61;1011;-87
2023/07/03 03:08:25;599978.00;2.00;1034.18;39280.00;0.13;68.64;;;;;18.30;1.00;;;;;;2271991;61;1766;-87
2023/07/03 03:10:54;213889.00;0.71;369.83;0.00;0.00;0.62;;;;;18.30;1.00;;;;;;2272026;61;1605;-88
2023/07/03 03:13:21;198907.00;0.66;344.04;21067.00;0.07;37.12;;;;;18.40;1.00;;;;;;2271999;61;1767;-87
2023/07/03 03:15:48;474469.00;1.58;817.88;106510.00;0.36;184.81;;;;;18.50;1.00;;;;;;2272057;61;1244;-87
2023/07/03 03:18:15;237179.00;0.79;409.90;22324.00;0.07;39.29;;;;;18.20;1.00;;;;;;2271883;61;2047;-87
2023/07/03 03:20:44;477344.00;1.59;822.83;0.00;0.00;0.62;;;;;18.30;1.00;;;;;;2272032;61;989;-87
2023/07/03 03:23:11;311843.00;1.04;538.28;57403.00;0.19;99.99;;;;;18.50;1.00;;;;;;2272147;61;1134;-86
2023/07/03 03:25:38;106419.00;0.35;184.65;0.00;0.00;0.62;;;;;18.70;1.00;;;;;;2272114;61;1035;-88
2023/07/03 03:28:05;202363.00;0.67;349.99;0.00;0.00;0.62;;;;;18.80;1.00;;;;;;2271971;61;1282;-86
2023/07/03 03:30:33;257458.00;0.86;444.78;0.00;0.00;0.62;;;;;19.00;1.00;;;;;;2271990;61;1352;-87
2023/07/03 03:33:00;531066.00;1.77;915.33;185380.00;0.62;320.75;;;;;19.20;1.00;;;;;;2272082;61;1705;-88
2023/07/03 03:35:27;446774.00;1.49;770.23;31410.00;0.10;55.02;;;;;19.10;1.00;;;;;;2272058;61;1335;-86
2023/07/03 03:37:55;269772.00;0.90;465.95;0.00;0.00;0.62;;;;;18.90;1.00;;;;;;2271899;61;2006;-87
2023/07/03 03:40:22;516032.00;1.72;889.43;0.00;0.00;0.62;;;;;18.50;1.00;;;;;;2271898;61;1139;-88
2023/07/03 03:42:49;160389.00;0.53;277.71;0.00;0.00;0.62;;;;;18.50;1.00;;;;;;2272055;61;995;-86
2023/07/03 03:45:16;202292.00;0.67;349.87;19886.00;0.07;35.07;;;;;18.60;1.00;;;;;;2271851;61;1035;-87
2023/07/03 03:47:43;939036.00;3.13;1624.79;102866.00;0.34;178.52;;;;;18.90;1.00;;;;;;2271910;61;1398;-87
2023/07/03 03:50:10;150862.00;0.50;261.29;0.00;0.00;0.62;;;;;19.10;1.00;;;;;;2271848;61;1607;-86
2023/07/03 03:52:37;317240.00;1.06;547.55;0.00;0.00;0.62;;;;;19.20;1.00;;;;;;2271831;61;1589;-87
2023/07/03 03:55:06;215248.00;0.72;372.17;0.00;0.00;0.62;;;;;19.00;1.00;;;;;;2271944;61;1556;-87
2023/07/03 03:57:33;411983.00;1.37;710.41;52234.00;0.17;91.05;;;;;19.00;1.00;;;;;;2271928;61;2002;-88
2023/07/03 04:00:00;150448.00;0.50;260.58;0.00;0.00;0.62;;;;;19.00;1.00;;;;;;2272027;61;1001;-88
2023/07/03 04:02:27;503854.00;1.68;868.46;47778.00;0.16;83.34;;;;;19.00;1.00;;;;;;2271921;61;1626;-86
2023/07/03 04:04:53;142790.00;0.48;247.38;0.00;0.00;0.62;;;;;19.00;1.00;;;;;;2272012;61;1595;-86
2023/07/03 04:07:20;511050.00;1.70;880.85;71559.00;0.24;124.45;;;;;18.80;1.00;;;;;;2271842;61;1615;-88
2023/07/03 04:09:47;307796.00;1.03;531.32;5541.00;0.02;10.22;;;;;18.60;1.00;;;;;;2271996;61;1095;-87
2023/07/03 04:12:17;51043.00;0.17;88.99;0.00;0.00;0.62;;;;;18.50;1.00;;;;;;2271988;61;917;-88
2023/07/03 04:14:44;200663.00;0.67;347.06;51935.00;0.17;90.53;;;;;18.50;1.00;;;;;;2271928;61;992;-88
2023/07/03 04:17:11;243408.00;0.81;420.61;0.00;0.00;0.62;;;;;18.60;1.00;;;;;;2271851;61;1934;-83
2023/07/03 04:19:37;721805.00;2.41;1245.07;9171.00;0.03;16.51;;;;;18.60;1.00;;;;;;2271830;61;1577;-86
2023/07/03 04:22:05;385962.00;1.29;665.67;47036.00;0.16;82.06;;;;;18.70;1.00;;;;;;2271920;61;1120;-87
2023/07/03 04:24:32;375418.00;1.25;647.55;0.00;0.00;0.62;;;;;19.00;1.00;;;;;;2271856;61;1103;-86
2023/07/03 04:26:59;653689.00;2.18;1127.02;155381.00;0.52;269.08;;;;;19.30;1.00;;;;;;2271832;61;1381;-87
2023/07/03 04:29:27;306829.00;1.02;529.66;0.00;0.00;0.62;;;;;19.60;1.00;;;;;;2271884;61;1001;-85
2023/07/03 04:31:54;89955.00;0.30;156.23;0.00;0.00;0.62;;;;;19.70;1.00;;;;;;2271845;61;1676;-86
2023/07/03 04:34:21;549765.00;1.83;947.55;81526.00;0.27;141.67;;;;;19.80;1.00;;;;;;2271736;61;989;-88
2023/07/03 04:36:48;226747.00;0.76;391.95;0.00;0.00;0.62;;;;;20.00;1.00;;;;;;2271770;61;1993;-88
2023/07/03 04:39:15;469727.00;1.57;809.72;0.00;0.00;0.62;;;;;20.20;1.00;;;;;;2271747;61;1028;-87
2023/07/03 04:41:42;239028.00;0.80;413.08;39399.00;0.13;68.85;;;;;20.50;1.00;;;;;;2271774;61;1674;-87
2023/07/03 04:44:12;339042.00;1.13;585.03;0.00;0.00;0.62;;;;;20.50;1.00;;;;;;2271912;61;1208;-87
2023/07/03 04:46:40;431436.00;1.44;743.85;18033.00;0.06;31.86;;;;;20.60;1.00;;;;;;2271821;61;952;-88
2023/07/03 04:49:07;299892.00;1.00;517.73;0.00;0.00;0.62;;;;;20.80;1.00;;;;;;2271840;61;1179;-87
2023/07/03 04:51:34;311440.00;1.04;537.58;6502.00;0.02;11.89;;;;;20.60;1.00;;;;;;2271745;61;1100;-87
2023/07/03 04:54:03;170303.00;0.57;294.79;0.00;0.00;0.62;;;;;20.60;1.00;;;;;;2271875;61;1672;-87
2023/07/03 04:56:33;191419.00;0.64;331.15;0.00;0.00;0.62;;;;;20.80;1.00;;;;;;2271798;61;1998;-87
2023/07/03 04:59:00;120567.00;0.40;209.06;0.00;0.00;0.62;;;;;21.00;1.00;;;;;;2271854;61;1431;-89
2023/07/03 05:01:29;203155.00;0.68;351.35;58304.00;0.19;101.54;;;;;21.00;1.00;;;;;;2272009;61;1050;-87
2023/07/03 05:03:58;198593.00;0.66;343.50;0.00;0.00;0.62;;;;;21.10;1.00;;;;;;2272448;61;1660;-87
2023/07/03 05:06:25;205019.00;0.68;354.56;0.00;0.00;0.62;;;;;21.20;1.00;;;;;;2272436;61;1714;-86
2023/07/03 05:08:52;295354.00;0.98;509.93;1194.00;0.00;2.69;;;;;21.30;1.00;;;;;;2272329;61;1478;-91
2023/07/03 05:11:20;245017.00;0.82;423.38;25917.00;0.09;45.52;;;;;21.30;1.00;;;;;;2272510;61;1539;-88
2023/07/03 05:13:47;178205.00;0.59;308.40;0.00;0.00;0.62;;;;;21.40;1.00;;;;;;2272581;61;927;-88
2023/07/03 05:16:14;142881.00;0.48;247.54;26086.00;0.09;45.81;;;;;21.30;1.00;;;;;;2272490;61;950;-89
2023/07/03 05:18:42;305708.00;1.02;527.73;40809.00;0.14;71.29;;;;;21.30;1.00;;;;;;2272417;61;2006;-88
2023/07/03 05:21:10;180140.00;0.60;311.73;0.00;0.00;0.62;;;;;21.30;1.00;;;;;;2272440;61;1115;-88
2023/07/03 05:23:37;66176.00;0.22;115.15;0.00;0.00;0.62;;;;;21.20;1.00;;;;;;2272524;61;1121;-87
2023/07/03 05:26:05;122507.00;0.41;212.41;0.00;0.00;0.62;;;;;21.40;1.00;;;;;;2272432;61;1032;-88
2023/07/03 05:28:32;205041.00;0.68;354.60;19340.00;0.06;34.13;;;;;21.50;1.00;;;;;;2272441;61;1362;-87
2023/07/03 05:31:00;649640.00;2.17;1120.01;73995.00;0.25;128.66;;;;;21.80;1.00;;;;;;2272294;61;1084;-88
2023/07/03 05:33:28;374123.00;1.25;645.32;32352.00;0.11;56.65;;;;;21.60;1.00;;;;;;2272455;61;1083;-88
2023/07/03 05:35:55;234232.00;0.78;404.83;39364.00;0.13;68.79;;;;;21.70;1.00;;;;;;2272432;61;890;-87
2023/07/03 05:38:24;142629.00;0.48;247.10;0.00;0.00;0.62;;;;;21.60;1.00;;;;;;2272383;61;1998;-89
2023/07/03 05:40:51;158729.00;0.53;274.85;0.00;0.00;0.62;;;;;21.70;1.00;;;;;;2272433;61;1056;-88
2023/07/03 05:43:18;145591.00;0.49;252.21;0.00;0.00;0.62;;;;;21.90;1.00;;;;;;2272366;61;1706;-88
2023/07/03 05:45:47;296191.00;0.99;511.37;3029.00;0.01;5.87;;;;;22.10;1.00;;;;;;2272390;61;1071;-89
2023/07/03 05:48:14;76968.00;0.26;133.80;0.00;0.00;0.62;;;;;22.10;1.00;;;;;;2272315;61;1302;-88
2023/07/03 05:50:41;297607.00;0.99;513.81;0.00;0.00;0.62;;;;;22.00;1.00;;;;;;2272439;61;981;-90
2023/07/03 05:53:09;84564.00;0.28;146.92;0.00;0.00;0.62;;;;;22.40;1.00;;;;;;2272431;61;1075;-88
2023/07/03 05:55:37;482539.00;1.61;831.77;0.00;0.00;0.62;;;;;22.40;1.00;;;;;;2272335;61;1069;-88
2023/07/03 05:58:05;146367.00;0.49;253.55;34043.00;0.11;59.58;;;;;22.40;1.00;;;;;;2272278;61;2008;-88
2023/07/03 06:00:32;239899.00;0.80;414.58;0.00;0.00;0.62;;;;;22.50;1.00;;;;;;2272353;61;1057;-88
2023/07/03 06:03:02;84503.00;0.28;146.81;0.00;0.00;0.62;;;;;22.20;1.00;;;;;;2272367;61;1057;-88
2023/07/03 06:05:29;90593.00;0.30;157.33;0.00;0.00;0.62;;;;;22.10;1.00;;;;;;2272383;61;1106;-89
2023/07/03 06:07:55;61701.00;0.21;107.42;0.00;0.00;0.62;;;;;22.30;1.00;;;;;;2272352;61;1262;-87
2023/07/03 06:10:23;580883.00;1.94;1001.22;80337.00;0.27;139.62;;;;;22.60;1.00;;;;;;2272271;61;1579;-89
2023/07/03 06:12:51;1996.00;0.01;4.08;0.00;0.00;0.62;;;;;22.90;1.00;;;;;;2272189;61;1060;-88
2023/07/03 06:15:18;138410.00;0.46;239.83;0.00;0.00;0.62;;;;;23.20;1.00;;;;;;2272264;61;1079;-88
2023/07/03 06:17:45;242621.00;0.81;419.26;0.00;0.00;0.62;;;;;23.40;1.00;;;;;;2272187;61;1933;-87
2023/07/03 06:20:12;82872.00;0.28;144.00;0.00;0.00;0.62;;;;;23.50;1.00;;;;;;2272278;61;1029;-86
2023/07/03 06:22:40;32326.00;0.11;56.61;0.00;0.00;0.62;;;;;23.40;1.00;;;;;;2272286;61;1116;-87
2023/07/03 06:25:07;142938.00;0.48;247.64;0.00;0.00;0.62;;;;;23.50;1.00;;;;;;2272339;61;1020;-88
2023/07/03 06:27:35;289694.00;0.97;500.20;54348.00;0.18;94.71;;;;;23.80;1.00;;;;;;2272317;61;1355;-86
2023/07/03 06:30:04;185232.00;0.62;320.50;35397.00;0.12;61.92;;;;;23.70;1.00;;;;;;2272216;61;1039;-87
2023/07/03 06:32:31;366539.00;1.22;632.29;53530.00;0.18;93.29;;;;;23.60;1.00;;;;;;2272266;61;1195;-86
2023/07/03 06:34:58;292075.00;0.97;504.30;60661.00;0.20;105.62;;;;;23.80;1.00;;;;;;2272330;61;1047;-86
2023/07/03 06:37:25;141706.00;0.47;245.51;0.00;0.00;0.62;;;;;23.70;1.00;;;;;;2272150;61;1921;-87
2023/07/03 06:39:52;179617.00;0.60;310.83;40999.00;0.14;71.62;;;;;23.90;1.00;;;;;;2272170;61;1127;-88
2023/07/03 06:42:19;297725.00;0.99;514.01;0.00;0.00;0.62;;;;;24.00;1.00;;;;;;2272270;61;1127;-87
2023/07/03 06:44:46;75605.00;0.25;131.44;0.00;0.00;0.62;;;;;23.90;1.00;;;;;;2272213;61;1036;-87
2023/07/03 06:47:14;242218.00;0.81;418.57;0.00;0.00;0.62;;;;;24.10;1.00;;;;;;2272331;61;1325;-86
2023/07/03 06:49:41;306894.00;1.02;529.77;0.00;0.00;0.62;;;;;24.20;1.00;;;;;;2272186;61;936;-85
2023/07/03 06:52:10;422711.00;1.41;728.85;25200.00;0.08;44.27;;;;;24.10;1.00;;;;;;2272232;61;908;-88
2023/07/03 06:54:37;121966.00;0.41;211.47;0.00;0.00;0.62;;;;;24.40;1.00;;;;;;2272173;61;1240;-86
2023/07/03 06:57:04;115960.00;0.39;201.11;0.00;0.00;0.62;;;;;24.40;1.00;;;;;;2272170;61;2007;-85
2023/07/03 06:59:31;230430.00;0.77;398.29;30005.00;0.10;52.59;;;;;24.20;1.00;;;;;;2272195;61;1038;-87
2023/07/03 07:01:58;215149.00;0.72;372.00;21710.00;0.07;38.23;;;;;24.40;1.00;;;;;;2272107;61;1084;-88
2023/07/03 07:04:27;506961.00;1.69;873.81;65954.00;0.22;114.77;;;;;24.40;1.00;;;;;;2272230;61;990;-88
2023/07/03 07:06:54;227706.00;0.76;393.60;39371.00;0.13;68.80;;;;;24.10;1.00;;;;;;2272107;61;1819;-89
2023/07/03 07:09:21;227414.00;0.76;393.10;0.00;0.00;0.62;;;;;23.90;1.00;;;;;;2272086;61;1742;-86
2023/07/03 07:11:48;196265.00;0.65;339.49;39906.00;0.13;69.73;;;;;24.00;1.00;;;;;;2272135;61;1755;-87
2023/07/03 07:14:15;412664.00;1.38;711.58;40866.00;0.14;71.39;;;;;24.00;1.00;;;;;;2272027;61;1739;-87
2023/07/03 07:16:42;354870.00;1.18;612.23;66523.00;0.22;115.75;;;;;23.50;1.00;;;;;;2272147;61;1123;-88
2023/07/03 07:19:12;141921.00;0.47;245.88;0.00;0.00;0.62;;;;;23.70;1.00;;;;;;2271861;61;1938;-86
2023/07/03 07:21:42;326587.00;1.09;563.62;0.00;0.00;0.62;;;;;24.10;1.00;;;;;;2272081;61;1134;-88
2023/07/03 07:24:18;100329.00;0.33;174.14;0.00;0.00;0.62;;;;;23.70;1.00;;;;;;2272128;61;1692;-89
2023/07/03 07:26:46;309907.00;1.03;534.95;0.00;0.00;0.62;;;;;23.50;1.00;;;;;;2271961;61;978;-87
2023/07/03 07:29:13;205747.00;0.69;355.82;0.00;0.00;0.62;;;;;23.80;1.00;;;;;;2272037;61;980;-86
2023/07/03 07:31:40;41947.00;0.14;73.26;0.00;0.00;0.62;;;;;24.00;1.00;;;;;;2272094;61;1145;-90
2023/07/03 07:34:09;124259.00;0.41;215.43;0.00;0.00;0.62;;;;;24.40;1.00;;;;;;2271957;61;1143;-88
2023/07/03 07:36:38;97308.00;0.32;168.92;0.00;0.00;0.62;;;;;24.90;1.00;;;;;;2272154;61;1035;-87
2023/07/03 07:39:07;328444.00;1.09;566.81;60381.00;0.20;105.14;;;;;25.50;1.00;;;;;;2271979;61;1996;-86
2023/07/03 07:41:34;152115.00;0.51;263.45;0.00;0.00;0.62;;;;;26.50;1.00;;;;;;2272088;61;1119;-90
2023/07/03 07:44:01;170853.00;0.57;295.74;0.00;0.00;0.62;;;;;27.20;1.00;;;;;;2272053;61;1023;-88
2023/07/03 07:46:30;448539.00;1.50;773.27;90842.00;0.30;157.76;;;;;27.50;1.00;;;;;;2272027;61;927;-88
2023/07/03 07:48:58;188844.00;0.63;326.72;0.00;0.00;0.62;;;;;28.00;1.00;;;;;;2272032;61;1375;-86
2023/07/03 07:51:25;1052149.00;3.51;1825.06;223697.00;0.75;386.70;;;;;27.90;1.00;;;;;;2271856;61;1016;-87
2023/07/03 07:53:52;338108.00;1.13;583.42;27492.00;0.09;48.24;;;;;28.70;1.00;;;;;;2272049;61;897;-88
2023/07/03 07:56:22;151001.00;0.50;261.53;0.00;0.00;0.62;;;;;29.10;1.00;;;;;;2272049;61;1023;-89
2023/07/03 07:58:50;447183.00;1.49;770.94;35733.00;0.12;62.51;;;;;28.70;1.00;;;;;;2271958;61;2004;-87
2023/07/03 08:01:17;228156.00;0.76;394.38;0.00;0.00;0.62;;;;;28.00;1.00;;;;;;2271976;61;977;-87
2023/07/03 08:03:45;241526.00;0.81;417.38;0.00;0.00;0.62;;;;;28.00;1.00;;;;;;2272050;61;1114;-88
2023/07/03 08:06:15;160807.00;0.54;278.43;36736.00;0.12;64.24;;;;;27.70;1.00;;;;;;2272006;61;1012;-87
2023/07/03 08:08:42;502058.00;1.67;865.37;42546.00;0.14;74.29;;;;;27.10;1.00;;;;;;2271804;61;1471;-86
2023/07/03 08:11:10;157412.00;0.52;272.58;0.00;0.00;0.62;;;;;26.20;1.00;;;;;;2271888;61;1237;-87
2023/07/03 08:13:40;318959.00;1.06;550.51;0.00;0.00;0.62;;;;;25.70;1.00;;;;;;2299387;40;3795;-85
2023/07/03 08:16:08;79709.00;0.27;138.53;0.00;0.00;0.62;;;;;25.70;1.00;;;;;;2271962;61;993;-90
2023/07/03 08:18:35;95685.00;0.32;166.12;0.00;0.00;0.62;;;;;26.50;1.00;;;;;;2271833;61;1992;-88
2023/07/03 08:21:02;187580.00;0.63;324.54;0.00;0.00;0.62;;;;;26.70;1.00;;;;;;2271798;61;996;-86
2023/07/03 08:23:30;359569.00;1.20;620.31;0.00;0.00;0.62;;;;;26.60;1.00;;;;;;2271846;61;1141;-87
2023/07/03 08:26:00;550918.00;1.84;949.54;0.00;0.00;0.62;;;;;26.40;1.00;;;;;;2271752;61;1679;-88
2023/07/03 08:28:28;411863.00;1.37;710.20;0.00;0.00;0.62;;;;;26.50;1.00;;;;;;2279454;55;3822;-87
2023/07/03 08:30:57;313766.00;1.05;541.58;0.00;0.00;0.62;;;;;26.60;1.00;;;;;;2271668;61;996;-87
2023/07/03 08:33:25;336279.00;1.12;580.28;0.00;0.00;0.62;;;;;26.90;1.00;;;;;;2271840;61;1204;-88
2023/07/03 08:35:52;265945.00;0.89;459.37;0.00;0.00;0.62;;;;;26.90;1.00;;;;;;2272195;61;1091;-88
2023/07/03 08:38:19;400136.00;1.33;690.04;0.00;0.00;0.62;;;;;26.80;1.00;;;;;;2279634;56;3847;-89
2023/07/03 08:40:46;110363.00;0.37;191.46;0.00;0.00;0.62;;;;;26.40;1.00;;;;;;2272328;61;1079;-88
2023/07/03 08:43:19;241684.00;0.81;417.65;0.00;0.00;0.62;;;;;26.50;1.00;;;;;;2287764;56;3795;-88
2023/07/03 08:45:49;211451.00;0.70;365.63;0.00;0.00;0.62;;;;;26.60;1.00;;;;;;2272553;61;1684;-88
2023/07/03 08:48:21;519221.00;1.73;894.92;26601.00;0.09;46.70;;;;;26.80;1.00;;;;;;2272450;61;1340;-87
2023/07/03 08:50:52;130534.00;0.44;226.25;0.00;0.00;0.62;;;;;26.60;1.00;;;;;;2272495;61;988;-87
2023/07/03 08:53:23;579869.00;1.93;999.47;87127.00;0.29;151.35;;;;;26.30;1.00;;;;;;2272330;61;1019;-88
2023/07/03 08:55:55;483028.00;1.61;832.61;36094.00;0.12;63.13;;;;;27.40;1.00;;;;;;2272322;61;981;-88
2023/07/03 08:58:22;126800.00;0.42;219.81;0.00;0.00;0.62;;;;;28.60;1.00;;;;;;2282707;40;3668;-87
2023/07/03 09:00:58;532932.00;1.78;918.54;23163.00;0.08;40.75;;;;;29.50;1.00;;;;;;2287461;56;3770;-88
2023/07/03 09:03:35;202680.00;0.68;350.54;0.00;0.00;0.62;;;;;30.00;1.00;;;;;;2279695;56;3801;-89
2023/07/03 09:06:13;243444.00;0.81;420.68;0.00;0.00;0.62;;;;;29.80;1.00;;;;;;2284801;55;3760;-89
2023/07/03 09:08:52;90572.00;0.30;157.30;0.00;0.00;0.62;;;;;30.00;1.00;;;;;;2272328;61;1402;-87
2023/07/03 09:11:22;413323.00;1.38;712.71;74647.00;0.25;129.79;;;;;28.70;1.00;;;;;;2272374;61;808;-88
2023/07/03 09:13:54;784650.00;2.62;1354.37;142909.00;0.48;247.59;;;;;28.50;1.00;;;;;;2277604;40;3616;-87
2023/07/03 09:16:24;166751.00;0.56;288.67;0.00;0.00;0.62;;;;;28.70;1.00;;;;;;2272399;61;899;-88
2023/07/03 09:18:57;45930.00;0.15;80.15;0.00;0.00;0.62;;;;;28.40;1.00;;;;;;2280233;55;3855;-88
2023/07/03 09:21:27;162817.00;0.54;281.89;0.00;0.00;0.62;;;;;28.40;1.00;;;;;;2272428;61;985;-88
2023/07/03 09:24:04;239659.00;0.80;414.16;63176.00;0.21;109.97;;;;;27.60;1.00;;;;;;2272356;61;1107;-87
2023/07/03 09:26:38;213543.00;0.71;369.23;4142.00;0.01;7.80;;;;;28.10;1.00;;;;;;2272218;61;1558;-89
2023/07/03 09:31:34;469206.00;1.56;808.82;0.00;0.00;0.62;;;;;28.60;1.00;;;;;;2269844;61;1334;-89
2023/07/03 09:34:03;344186.00;1.15;593.87;0.00;0.00;0.62;;;;;29.10;1.00;;;;;;2268256;61;986;-89
2023/07/03 09:36:34;374783.00;1.25;646.46;53931.00;0.18;93.98;;;;;29.30;1.00;;;;;;2268254;61;1024;-88
2023/07/03 09:39:09;345180.00;1.15;595.58;12502.00;0.04;22.28;;;;;29.10;1.00;;;;;;2268098;61;2014;-88
2023/07/03 09:41:37;167703.00;0.56;290.31;0.00;0.00;0.62;;;;;28.80;1.00;;;;;;2273895;55;3731;-87
2023/07/03 09:44:08;190925.00;0.64;330.30;0.00;0.00;0.62;;;;;28.60;1.00;;;;;;2282214;55;3795;-88
2023/07/03 09:46:35;162643.00;0.54;281.59;0.00;0.00;0.62;;;;;28.60;1.00;;;;;;2319296;40;3782;-86
2023/07/03 09:54:17;365752.00;1.22;630.94;0.00;0.00;0.62;;;;;28.30;1.00;;;;;;1939222;56;3543;-87
2023/07/03 09:56:44;311019.00;1.04;536.86;0.00;0.00;0.62;;;;;28.30;1.00;;;;;;2272288;61;935;-88
2023/07/03 09:59:14;326954.00;1.09;564.25;49666.00;0.17;86.61;;;;;28.90;1.00;;;;;;2285237;55;3790;-87
2023/07/03 10:01:41;622126.00;2.07;1072.44;175974.00;0.59;304.56;;;;;28.90;1.00;;;;;;2288901;55;4027;-87
2023/07/03 10:04:10;506867.00;1.69;873.65;108233.00;0.36;187.78;;;;;28.70;1.00;;;;;;2280418;40;3725;-87